Richfield, Nebraska
Current Conditions -  °F | °C
As of 2:55 PM on Tuesday 27 Jan 2015 (Local Time) from KMLE Reporting Station
Clear Clear  
Wind Chill: 54°   Ceiling: Unl
Heat Index: 54°   Visibility: 10mi
Dew Point: 33°   Wind: 10mph
Humidity: 45%   Direction: 130°SE
Pressure: 30.04"   Gusts: NA
Location:  41.11°N, 96.07°W
Report Text: KMLE 272055Z AUTO 13009KT 10SM CLR 12/01 A3004 RMK AO2 T01200005
Loading
Personal Weather Stations






























Interactive Weather Map New forecast layout! Learn more

10-Day Weather Forecast

Advertisements
Track Severe Weather on mobile